Time;durP1;ratioP1;P1;durP2;ratioP2;P2;SDS_P1;SDS_P2;PMS_P1;PMS_P2;Temp;Humidity;BMP_temperature;BMP_pressure;BME280_temperature;BME280_humidity;BME280_pressure;Samples;Min_cycle;Max_cycle;Signal;HPM_P1;HPM_P2
2022/05/05 00:00:34;;;;;;;7.43;6.53;;;16.10;91.80;;;;;;5091711;28;20028;-73
2022/05/05 00:03:01;;;;;;;11.75;7.35;;;16.10;91.80;;;;;;5092279;28;20476;-71
2022/05/05 00:05:26;;;;;;;9.40;7.57;;;16.00;91.80;;;;;;5091537;28;20048;-74
2022/05/05 00:07:52;;;;;;;7.82;7.03;;;16.00;91.90;;;;;;5092209;28;20098;-73
2022/05/05 00:16:07;;;;;;;8.05;6.82;;;16.00;92.20;;;;;;5069054;28;20440;-73
2022/05/05 00:18:33;;;;;;;8.45;7.28;;;16.00;92.20;;;;;;5068751;28;20039;-73
2022/05/05 00:20:58;;;;;;;10.52;7.22;;;16.00;92.10;;;;;;5079779;28;20047;-72
2022/05/05 00:23:24;;;;;;;8.25;7.15;;;16.00;92.10;;;;;;5091674;28;20105;-80
2022/05/05 00:25:50;;;;;;;7.70;6.90;;;16.10;92.30;;;;;;5091880;28;20069;-72
2022/05/05 00:28:34;;;;;;;8.50;7.05;;;16.10;92.10;;;;;;5092033;28;20035;-72
2022/05/05 00:31:00;;;;;;;7.03;6.15;;;16.10;91.90;;;;;;5092179;28;20020;-72
2022/05/05 00:33:25;;;;;;;6.90;6.30;;;16.10;91.70;;;;;;5091240;28;20465;-73
2022/05/05 00:35:51;;;;;;;8.63;7.32;;;16.10;91.50;;;;;;5092010;28;20032;-72
2022/05/05 00:38:17;;;;;;;10.85;7.55;;;16.10;91.80;;;;;;5092333;28;20350;-72
2022/05/05 00:40:43;;;;;;;8.65;7.85;;;16.10;92.10;;;;;;5091108;28;20020;-72
2022/05/05 00:43:09;;;;;;;8.63;7.40;;;16.00;91.90;;;;;;5091911;28;20059;-73
2022/05/05 00:45:35;;;;;;;12.25;7.85;;;16.00;92.20;;;;;;5091301;28;20032;-72
2022/05/05 00:48:12;;;;;;;10.68;7.50;;;16.00;92.50;;;;;;5091935;28;20036;-72
2022/05/05 00:50:38;;;;;;;8.55;7.70;;;16.00;92.70;;;;;;5092646;28;20035;-72
2022/05/05 00:53:04;;;;;;;10.00;9.07;;;16.00;92.40;;;;;;5095932;28;20036;-72
2022/05/05 00:55:35;;;;;;;9.07;8.18;;;16.00;92.30;;;;;;5095406;28;20115;-72
2022/05/05 00:58:03;;;;;;;9.20;7.90;;;15.90;92.70;;;;;;5095926;28;20143;-72
2022/05/05 01:00:29;;;;;;;12.60;8.82;;;16.00;92.90;;;;;;5095214;28;20028;-72
2022/05/05 01:02:59;;;;;;;10.70;9.60;;;16.00;93.00;;;;;;5095678;28;20024;-72
2022/05/05 01:05:25;;;;;;;10.68;9.45;;;16.00;92.50;;;;;;5094436;28;20028;-73
2022/05/05 01:07:51;;;;;;;11.55;10.05;;;16.00;92.40;;;;;;5094895;28;20032;-73
2022/05/05 01:10:17;;;;;;;12.13;10.82;;;16.00;92.80;;;;;;5095748;28;20032;-72
2022/05/05 01:12:43;;;;;;;11.75;10.52;;;15.90;93.30;;;;;;5094923;28;20436;-71
2022/05/05 01:15:09;;;;;;;12.90;11.65;;;15.90;93.60;;;;;;5095645;28;20487;-72
2022/05/05 01:17:35;;;;;;;14.20;10.40;;;15.90;93.80;;;;;;5095151;28;20028;-72
2022/05/05 01:20:14;;;;;;;13.55;10.43;;;15.90;93.60;;;;;;5095451;28;20031;-72
2022/05/05 01:22:39;;;;;;;11.27;10.25;;;15.80;94.00;;;;;;5094841;28;20035;-72
2022/05/05 01:30:34;;;;;;;12.00;9.95;;;15.70;96.20;;;;;;5094688;28;20031;-71
2022/05/05 01:32:59;;;;;;;11.38;10.38;;;15.70;95.90;;;;;;5095477;28;20024;-71
2022/05/05 01:35:25;;;;;;;13.73;10.45;;;15.60;96.10;;;;;;5095307;28;20115;-72
2022/05/05 01:37:51;;;;;;;12.25;10.80;;;15.70;96.40;;;;;;5094578;28;20024;-72
2022/05/05 01:40:16;;;;;;;13.88;10.60;;;15.70;96.40;;;;;;5095124;28;20020;-72
2022/05/05 01:42:43;;;;;;;14.68;10.38;;;15.70;96.50;;;;;;5094667;28;20035;-72
2022/05/05 01:45:09;;;;;;;13.02;10.60;;;15.60;96.50;;;;;;5094654;28;20035;-72
2022/05/05 01:47:36;;;;;;;17.20;10.50;;;15.70;96.60;;;;;;5094046;28;20036;-72
2022/05/05 01:50:02;;;;;;;10.82;9.68;;;15.60;96.70;;;;;;5094899;28;20016;-72
2022/05/05 01:52:28;;;;;;;12.40;10.23;;;15.70;97.20;;;;;;5094853;28;20032;-71
2022/05/05 01:54:53;;;;;;;12.18;10.77;;;15.70;96.50;;;;;;5094165;28;20024;-71
2022/05/05 01:57:19;;;;;;;12.65;10.85;;;15.70;96.40;;;;;;5094750;28;20031;-72
2022/05/05 01:59:44;;;;;;;11.30;10.18;;;15.70;96.40;;;;;;5094061;28;20035;-73
2022/05/05 02:02:10;;;;;;;12.23;10.45;;;15.60;96.70;;;;;;5093842;28;20028;-72
2022/05/05 02:04:36;;;;;;;12.45;11.25;;;15.70;96.90;;;;;;5094018;28;20028;-73
2022/05/05 02:07:03;;;;;;;12.50;11.25;;;15.60;96.70;;;;;;5094461;28;20036;-72
2022/05/05 02:09:30;;;;;;;12.50;9.70;;;15.60;96.90;;;;;;5094436;28;20039;-72
2022/05/05 02:11:56;;;;;;;15.45;10.50;;;15.60;96.90;;;;;;5093606;28;20103;-72
2022/05/05 02:14:23;;;;;;;14.18;11.35;;;15.70;96.60;;;;;;5094160;28;20079;-72
2022/05/05 02:16:49;;;;;;;18.60;12.45;;;15.70;96.50;;;;;;5094019;28;20060;-72
2022/05/05 02:19:15;;;;;;;13.88;11.65;;;15.70;96.30;;;;;;5094704;28;20032;-72
2022/05/05 02:21:41;;;;;;;13.07;11.77;;;15.60;96.50;;;;;;5093321;28;20550;-72
2022/05/05 02:24:07;;;;;;;15.05;11.80;;;15.70;96.50;;;;;;5094289;28;20071;-73
2022/05/05 02:26:32;;;;;;;12.05;10.85;;;15.60;96.70;;;;;;5093816;28;20545;-79
2022/05/05 02:28:58;;;;;;;13.90;11.25;;;15.60;96.60;;;;;;5093887;28;20081;-74
2022/05/05 02:31:23;;;;;;;15.75;11.70;;;15.60;96.80;;;;;;5092875;28;20378;-74
2022/05/05 02:33:50;;;;;;;12.10;10.93;;;15.60;96.50;;;;;;5093424;28;20047;-72
2022/05/05 02:39:00;;;;;;;12.82;11.63;;;15.60;96.40;;;;;;5093953;28;20031;-72
2022/05/05 02:41:25;;;;;;;14.07;11.30;;;15.60;96.70;;;;;;5093563;28;20457;-72
2022/05/05 02:46:35;;;;;;;12.73;11.40;;;15.50;96.80;;;;;;5092822;28;20145;-73
2022/05/05 02:49:01;;;;;;;12.98;11.10;;;15.50;96.50;;;;;;5093647;28;20024;-72
2022/05/05 02:51:26;;;;;;;12.73;11.40;;;15.50;96.70;;;;;;5093682;28;20043;-72
2022/05/05 02:56:36;;;;;;;14.57;13.18;;;15.40;97.00;;;;;;5092677;28;20046;-73
2022/05/05 02:59:02;;;;;;;19.52;13.35;;;15.30;97.50;;;;;;5093332;28;20028;-72
2022/05/05 03:01:27;;;;;;;14.43;12.95;;;15.30;97.90;;;;;;5093359;28;20020;-73
2022/05/05 03:03:53;;;;;;;14.18;12.75;;;15.30;98.20;;;;;;5092886;28;20107;-72
2022/05/05 03:06:19;;;;;;;15.50;12.43;;;15.20;98.30;;;;;;5093032;28;20461;-71
2022/05/05 03:08:44;;;;;;;14.52;12.68;;;15.20;98.60;;;;;;5092756;28;20154;-71
2022/05/05 03:11:10;;;;;;;13.45;11.93;;;15.20;98.80;;;;;;5093208;28;20111;-73
2022/05/05 03:13:36;;;;;;;14.52;12.98;;;15.20;98.70;;;;;;5092471;28;20028;-75
2022/05/05 03:16:03;;;;;;;16.35;12.60;;;15.20;99.00;;;;;;5093145;28;20149;-73
2022/05/05 03:18:29;;;;;;;16.35;13.15;;;15.10;99.10;;;;;;5093194;28;20028;-73
2022/05/05 03:20:54;;;;;;;14.13;12.68;;;15.10;99.20;;;;;;5092801;28;20103;-73
2022/05/05 03:23:20;;;;;;;15.38;13.77;;;15.10;99.50;;;;;;5093047;28;20441;-72
2022/05/05 03:25:46;;;;;;;14.82;13.40;;;15.10;99.60;;;;;;5092331;28;20031;-71
2022/05/05 03:28:11;;;;;;;14.25;12.85;;;15.00;99.30;;;;;;5092883;28;20435;-72
2022/05/05 03:30:37;;;;;;;15.55;13.07;;;15.00;99.80;;;;;;5092261;28;20024;-74
2022/05/05 03:33:03;;;;;;;14.02;12.73;;;15.00;99.90;;;;;;5092924;28;20035;-73
2022/05/05 03:35:29;;;;;;;14.88;13.20;;;15.00;99.90;;;;;;5092665;28;20081;-73
2022/05/05 03:37:54;;;;;;;14.80;13.23;;;15.00;99.90;;;;;;5091962;28;20056;-72
2022/05/05 03:40:20;;;;;;;14.45;12.32;;;15.00;99.90;;;;;;5092486;28;20024;-73
2022/05/05 03:42:45;;;;;;;14.25;12.85;;;15.00;99.90;;;;;;5091875;28;20069;-74
2022/05/05 03:45:11;;;;;;;14.63;13.10;;;15.00;99.90;;;;;;5092875;28;20024;-73
2022/05/05 03:47:36;;;;;;;13.85;12.52;;;15.00;99.90;;;;;;5092491;28;20028;-73
2022/05/05 03:50:02;;;;;;;15.68;12.52;;;15.00;99.90;;;;;;5091922;28;20035;-73
2022/05/05 03:52:28;;;;;;;15.23;12.80;;;15.00;99.90;;;;;;5092435;28;20024;-73
2022/05/05 03:54:53;;;;;;;15.48;12.48;;;15.00;99.90;;;;;;5091625;28;20036;-73
2022/05/05 03:57:19;;;;;;;15.82;12.70;;;15.10;99.90;;;;;;5092389;28;20454;-75
2022/05/05 03:59:45;;;;;;;13.45;12.15;;;15.10;99.90;;;;;;5090575;28;20020;-72
2022/05/05 04:02:10;;;;;;;14.82;12.13;;;15.10;99.90;;;;;;5092313;28;20036;-72
2022/05/05 04:04:36;;;;;;;13.07;11.88;;;15.10;99.90;;;;;;5092272;28;20028;-72
2022/05/05 04:07:02;;;;;;;13.55;12.15;;;15.10;99.90;;;;;;5091304;28;20059;-73
2022/05/05 04:09:27;;;;;;;14.07;12.60;;;15.10;99.80;;;;;;5092034;28;20384;-73
2022/05/05 04:11:53;;;;;;;13.55;11.65;;;15.20;99.80;;;;;;5091567;28;20024;-74
2022/05/05 04:14:18;;;;;;;15.10;11.85;;;15.20;99.90;;;;;;5091851;28;20120;-73
2022/05/05 04:16:44;;;;;;;17.27;12.38;;;15.30;99.80;;;;;;5091566;28;20472;-73
2022/05/05 04:19:10;;;;;;;13.00;11.77;;;15.30;99.30;;;;;;5092164;28;20066;-73
2022/05/05 04:21:35;;;;;;;20.35;12.85;;;15.30;99.30;;;;;;5091748;28;20027;-73
2022/05/05 04:24:01;;;;;;;13.23;11.75;;;15.30;98.80;;;;;;5091511;28;20108;-73
2022/05/05 04:26:27;;;;;;;13.68;12.25;;;15.30;99.30;;;;;;5107325;28;20437;-72
2022/05/05 04:28:56;;;;;;;13.75;11.95;;;15.30;99.20;;;;;;5091268;28;20104;-72
2022/05/05 04:31:23;;;;;;;13.65;11.40;;;15.40;99.40;;;;;;5092273;28;20372;-72
2022/05/05 04:33:49;;;;;;;11.98;10.77;;;15.40;99.40;;;;;;5091475;28;20078;-72
2022/05/05 04:36:15;;;;;;;14.77;12.13;;;15.50;99.20;;;;;;5092093;28;20036;-72
2022/05/05 04:38:41;;;;;;;12.38;11.07;;;15.60;98.90;;;;;;5095511;28;20031;-71
2022/05/05 04:41:06;;;;;;;16.17;11.98;;;15.70;98.40;;;;;;5099884;28;20081;-72
2022/05/05 04:43:33;;;;;;;23.67;11.15;;;15.70;98.20;;;;;;5102148;28;20430;-72
2022/05/05 04:45:59;;;;;;;16.85;11.38;;;15.80;97.70;;;;;;5098371;28;20381;-74
2022/05/05 04:48:25;;;;;;;19.15;11.18;;;15.90;97.70;;;;;;5100040;28;20032;-72
2022/05/05 04:50:50;;;;;;;13.95;10.90;;;16.00;97.40;;;;;;5099529;28;20116;-72
2022/05/05 04:53:16;;;;;;;14.48;11.32;;;16.10;97.00;;;;;;5103762;28;20424;-73
2022/05/05 04:55:42;;;;;;;16.80;11.02;;;16.30;97.20;;;;;;5103597;28;20055;-74
2022/05/05 04:58:08;;;;;;;15.95;11.20;;;16.40;95.70;;;;;;5092735;28;20024;-73
2022/05/05 05:00:35;;;;;;;15.52;10.73;;;16.50;95.60;;;;;;5091203;28;20449;-73
2022/05/05 05:03:01;;;;;;;19.13;11.93;;;16.60;95.20;;;;;;5090722;28;20866;-74
2022/05/05 05:05:27;;;;;;;12.63;10.98;;;16.80;94.50;;;;;;5091303;28;20041;-73
2022/05/05 05:07:52;;;;;;;15.40;10.55;;;16.90;94.30;;;;;;5090955;28;20032;-74
2022/05/05 05:10:18;;;;;;;12.18;9.98;;;17.00;93.30;;;;;;5091573;28;20078;-72
2022/05/05 05:12:44;;;;;;;10.68;9.57;;;17.20;92.90;;;;;;5090969;28;20038;-74
2022/05/05 05:15:10;;;;;;;12.68;10.52;;;17.40;92.40;;;;;;5091460;28;20076;-73
2022/05/05 05:17:36;;;;;;;13.93;8.95;;;17.50;91.50;;;;;;5091552;28;20059;-72
2022/05/05 05:20:03;;;;;;;16.60;9.23;;;17.70;90.80;;;;;;5090986;28;20619;-73
2022/05/05 05:22:29;;;;;;;12.77;9.63;;;17.90;89.20;;;;;;5091537;28;20031;-73
2022/05/05 05:24:54;;;;;;;10.52;8.85;;;18.10;87.80;;;;;;5090990;28;20035;-73
2022/05/05 05:27:20;;;;;;;9.77;8.77;;;18.30;86.20;;;;;;5090356;28;20032;-73
2022/05/05 05:29:45;;;;;;;11.07;8.32;;;18.40;84.90;;;;;;5090835;28;20115;-73
2022/05/05 05:32:11;;;;;;;11.93;8.73;;;18.70;83.00;;;;;;5091203;28;20378;-73
2022/05/05 05:34:37;;;;;;;9.45;8.10;;;19.00;81.30;;;;;;5090774;28;20341;-73
2022/05/05 05:37:03;;;;;;;7.65;6.90;;;19.60;79.10;;;;;;5090539;28;20047;-73
2022/05/05 05:39:30;;;;;;;7.93;6.85;;;20.40;74.50;;;;;;5094669;28;20407;-73
2022/05/05 05:41:56;;;;;;;8.38;6.65;;;21.60;69.20;;;;;;5094271;28;20028;-72
2022/05/05 05:44:22;;;;;;;7.38;6.28;;;22.70;61.70;;;;;;5094849;28;20121;-72
2022/05/05 05:46:47;;;;;;;7.10;5.38;;;23.50;58.20;;;;;;5094165;28;20470;-73
2022/05/05 05:49:13;;;;;;;7.05;5.60;;;24.20;54.60;;;;;;5110229;28;20142;-72
2022/05/05 05:51:39;;;;;;;7.18;5.63;;;24.50;53.60;;;;;;5094398;28;20028;-73
2022/05/05 05:54:04;;;;;;;11.15;5.80;;;25.50;51.40;;;;;;5094089;28;20040;-71
2022/05/05 05:56:30;;;;;;;6.72;5.38;;;26.00;48.70;;;;;;5094593;28;20070;-73
2022/05/05 05:58:56;;;;;;;8.50;5.05;;;26.10;47.80;;;;;;5093911;28;20035;-73
2022/05/05 06:04:25;;;;;;;6.57;4.38;;;27.70;45.20;;;;;;5094400;28;20077;-73
2022/05/05 06:06:50;;;;;;;7.47;4.65;;;28.70;42.40;;;;;;5093615;28;20407;-81
2022/05/05 06:09:16;;;;;;;5.20;4.70;;;29.10;41.50;;;;;;5092030;28;20097;-72
2022/05/05 06:11:42;;;;;;;5.53;4.30;;;29.30;40.80;;;;;;5090181;28;20028;-71
2022/05/05 06:14:08;;;;;;;3.80;3.50;;;29.80;40.00;;;;;;5093033;28;20338;-71
2022/05/05 06:16:37;;;;;;;4.82;3.20;;;30.30;39.50;;;;;;5094067;28;20036;-70
2022/05/05 06:19:02;;;;;;;3.00;2.70;;;30.60;38.00;;;;;;5093097;28;20023;-70
2022/05/05 06:21:28;;;;;;;4.65;2.83;;;30.20;37.40;;;;;;5093810;28;20442;-69
2022/05/05 06:23:54;;;;;;;5.35;2.92;;;29.80;37.70;;;;;;5093312;28;20028;-70
2022/05/05 06:26:20;;;;;;;6.88;3.33;;;28.80;38.70;;;;;;5094975;28;20043;-70
2022/05/05 06:28:46;;;;;;;4.57;3.17;;;27.70;40.40;;;;;;5093528;28;20032;-71
2022/05/05 06:31:11;;;;;;;7.22;4.28;;;27.50;41.40;;;;;;5093504;28;20026;-69
2022/05/05 06:33:38;;;;;;;5.93;4.35;;;27.30;41.20;;;;;;5091496;28;20027;-70
2022/05/05 06:36:03;;;;;;;5.80;3.05;;;27.20;41.70;;;;;;5092692;28;20031;-70
2022/05/05 06:38:29;;;;;;;6.72;2.88;;;27.10;42.10;;;;;;5092969;28;20028;-70
2022/05/05 06:40:54;;;;;;;8.45;2.70;;;26.80;42.30;;;;;;5092563;28;20451;-70
2022/05/05 06:43:20;;;;;;;5.50;3.88;;;26.80;42.60;;;;;;5093024;28;20069;-70
2022/05/05 06:45:46;;;;;;;4.50;3.10;;;26.90;42.90;;;;;;5108666;28;20028;-70
2022/05/05 06:48:13;;;;;;;5.85;2.63;;;27.20;42.50;;;;;;5092965;28;20038;-70
2022/05/05 06:50:38;;;;;;;6.40;2.72;;;27.40;42.50;;;;;;5093120;28;20031;-70
2022/05/05 06:53:04;;;;;;;2.20;2.00;;;27.80;41.60;;;;;;5092548;28;20020;-70
2022/05/05 06:55:29;;;;;;;3.25;2.30;;;28.40;41.80;;;;;;5092540;28;20028;-71
2022/05/05 06:57:55;;;;;;;2.00;1.80;;;28.50;40.90;;;;;;5092323;28;20103;-71
2022/05/05 07:00:21;;;;;;;3.50;1.90;;;27.80;40.10;;;;;;5093013;28;20023;-69
2022/05/05 07:02:47;;;;;;;6.05;4.10;;;27.20;41.50;;;;;;5092758;28;20091;-70
2022/05/05 07:05:24;;;;;;;4.32;1.90;;;27.00;42.00;;;;;;5092099;28;20088;-70
2022/05/05 07:08:12;;;;;;;8.75;1.88;;;27.10;42.80;;;;;;5092382;28;20034;-71
2022/05/05 07:10:53;;;;;;;5.00;1.98;;;27.50;42.20;;;;;;5108256;28;20047;-70
2022/05/05 07:13:22;;;;;;;;;;;27.50;41.80;;;;;;5093437;28;20020;-71
2022/05/05 07:15:47;;;;;;;3.08;1.50;;;27.50;41.10;;;;;;5092502;28;19912;-70
2022/05/05 07:18:13;;;;;;;4.05;1.20;;;27.50;41.60;;;;;;5092621;28;20020;-71
2022/05/05 07:20:39;;;;;;;2.13;1.30;;;27.40;41.00;;;;;;5092556;28;20076;-70
2022/05/05 07:23:07;;;;;;;1.60;1.33;;;27.30;41.30;;;;;;5091805;28;20072;-70
2022/05/05 07:25:33;;;;;;;3.65;1.20;;;27.30;40.70;;;;;;5092221;28;20020;-70
2022/05/05 07:27:58;;;;;;;2.53;1.30;;;27.20;41.50;;;;;;5091969;28;20027;-70
2022/05/05 07:30:24;;;;;;;3.55;1.55;;;27.30;42.00;;;;;;5090762;28;20080;-70
2022/05/05 07:32:50;;;;;;;1.38;1.27;;;27.40;40.60;;;;;;5092644;28;20295;-72
2022/05/05 07:35:17;;;;;;;1.65;1.30;;;27.60;40.50;;;;;;5092569;28;20024;-70
2022/05/05 07:37:42;;;;;;;2.60;1.25;;;27.70;39.80;;;;;;5092584;28;20068;-71
2022/05/05 07:40:09;;;;;;;1.30;1.20;;;27.70;39.80;;;;;;5091849;28;20104;-70
2022/05/05 07:42:37;;;;;;;3.05;1.50;;;28.00;40.50;;;;;;5092152;28;20457;-70
2022/05/05 07:45:04;;;;;;;1.98;1.10;;;28.40;39.30;;;;;;5091685;28;20183;-70
2022/05/05 07:47:30;;;;;;;1.90;1.10;;;28.60;39.90;;;;;;5091848;28;20028;-70
2022/05/05 07:49:55;;;;;;;1.38;1.20;;;29.00;38.50;;;;;;5091190;28;20484;-69
2022/05/05 07:52:21;;;;;;;1.70;1.20;;;29.70;37.90;;;;;;5092525;28;20468;-70
2022/05/05 07:54:47;;;;;;;1.88;1.20;;;29.80;37.90;;;;;;5091875;28;20083;-69
2022/05/05 07:57:14;;;;;;;2.15;1.30;;;30.10;36.90;;;;;;5091566;28;20085;-70
2022/05/05 07:59:44;;;;;;;3.05;1.23;;;30.60;36.30;;;;;;5091508;28;20126;-70
2022/05/05 08:02:13;;;;;;;3.28;1.50;;;30.60;36.60;;;;;;5091691;28;20071;-70
2022/05/05 08:04:42;;;;;;;3.53;2.50;;;30.30;37.50;;;;;;5092281;28;20024;-68
2022/05/05 08:07:08;;;;;;;4.43;2.42;;;30.30;38.30;;;;;;5091340;28;20429;-70
2022/05/05 08:09:34;;;;;;;8.60;2.85;;;30.50;38.80;;;;;;5092150;28;20111;-70
2022/05/05 08:12:00;;;;;;;6.80;3.00;;;30.20;37.10;;;;;;5091131;28;20022;-70
2022/05/05 08:14:26;;;;;;;3.65;3.05;;;29.50;37.70;;;;;;5091764;28;20097;-70
2022/05/05 08:16:53;;;;;;;6.75;2.95;;;28.80;39.10;;;;;;5091805;28;20115;-70
2022/05/05 08:19:20;;;;;;;3.67;2.30;;;28.30;39.60;;;;;;5091794;28;20020;-69
2022/05/05 08:21:46;;;;;;;4.80;2.30;;;28.10;40.10;;;;;;5091765;28;20020;-69
2022/05/05 08:29:40;;;;;;;4.25;2.70;;;27.30;42.30;;;;;;5071592;28;20109;-70
2022/05/05 08:32:05;;;;;;;3.00;1.58;;;27.50;40.60;;;;;;5071105;28;20016;-70
2022/05/05 08:34:31;;;;;;;1.70;1.20;;;27.60;40.90;;;;;;5071667;28;20032;-70
2022/05/05 08:36:57;;;;;;;1.88;1.10;;;27.90;40.70;;;;;;5071194;28;20020;-67
2022/05/05 08:39:22;;;;;;;1.70;1.20;;;28.20;38.90;;;;;;5071575;28;20043;-69
2022/05/05 08:41:48;;;;;;;1.55;1.20;;;28.40;39.40;;;;;;5071725;28;20031;-69
2022/05/05 08:44:14;;;;;;;2.05;1.17;;;28.30;38.70;;;;;;5071194;28;20548;-71
2022/05/05 08:46:40;;;;;;;3.13;1.17;;;28.30;39.90;;;;;;5071304;28;20027;-69
2022/05/05 08:49:07;;;;;;;2.55;1.00;;;28.30;39.90;;;;;;5071007;28;20453;-70
2022/05/05 08:51:44;;;;;;;1.50;1.00;;;28.10;39.30;;;;;;5071809;28;20090;-69
2022/05/05 08:54:16;;;;;;;1.55;1.00;;;28.00;38.90;;;;;;5071044;28;20025;-69
2022/05/05 08:56:48;;;;;;;1.65;1.33;;;28.10;39.80;;;;;;5071505;28;20453;-70
2022/05/05 08:59:14;;;;;;;2.90;1.15;;;28.10;39.50;;;;;;5070730;28;20103;-69
2022/05/05 09:01:41;;;;;;;2.88;1.10;;;27.90;38.40;;;;;;5071585;28;20396;-70
2022/05/05 09:04:07;;;;;;;3.85;1.50;;;27.90;39.40;;;;;;5070920;28;20433;-70
2022/05/05 09:06:51;;;;;;;4.63;1.70;;;27.60;39.90;;;;;;5071135;28;20029;-69
2022/05/05 09:09:23;;;;;;;1.30;1.00;;;27.30;40.20;;;;;;5070550;28;20796;-69
2022/05/05 09:12:10;;;;;;;1.83;1.10;;;26.60;39.80;;;;;;5072773;28;20028;-70
2022/05/05 09:14:45;;;;;;;2.00;1.00;;;26.30;40.30;;;;;;5075003;28;20469;-69
2022/05/05 09:17:19;;;;;;;2.72;0.98;;;26.20;41.60;;;;;;5074619;28;20141;-69
2022/05/05 09:19:48;;;;;;;1.40;1.10;;;25.60;39.90;;;;;;5074824;28;20587;-69
2022/05/05 09:22:16;;;;;;;2.97;1.10;;;25.30;40.70;;;;;;5073049;28;20028;-69
2022/05/05 09:24:49;;;;;;;3.85;1.25;;;25.20;42.00;;;;;;5074824;28;20103;-70
2022/05/05 09:27:21;;;;;;;0.90;0.85;;;24.80;41.90;;;;;;5074147;28;20036;-70
2022/05/05 09:30:12;;;;;;;2.47;1.08;;;24.80;42.80;;;;;;5075045;28;20031;-70
2022/05/05 09:32:41;;;;;;;1.50;0.93;;;24.70;41.20;;;;;;5074613;28;20017;-70
2022/05/05 09:35:15;;;;;;;2.75;0.80;;;24.60;41.10;;;;;;5074087;28;20020;-70
2022/05/05 09:37:48;;;;;;;1.55;0.80;;;24.50;41.20;;;;;;5074834;28;20139;-70
2022/05/05 09:40:17;;;;;;;1.15;0.90;;;24.70;42.20;;;;;;5073892;28;20478;-70
2022/05/05 09:42:47;;;;;;;1.27;1.00;;;24.80;41.20;;;;;;5074737;28;20032;-70
2022/05/05 09:45:33;;;;;;;4.10;0.90;;;24.80;41.10;;;;;;5074086;28;20024;-70
2022/05/05 09:48:03;;;;;;;1.90;1.10;;;24.90;40.10;;;;;;5074151;28;20483;-70
2022/05/05 09:50:31;;;;;;;1.60;0.90;;;24.90;41.40;;;;;;5074461;28;20025;-70
2022/05/05 09:58:36;;;;;;;1.23;0.88;;;25.50;42.10;;;;;;5074485;28;20047;-69
2022/05/05 10:01:12;;;;;;;2.05;1.10;;;25.80;39.90;;;;;;5073623;28;20103;-69
2022/05/05 10:04:05;;;;;;;2.00;1.00;;;25.90;39.60;;;;;;5074065;28;20099;-68
2022/05/05 10:06:34;;;;;;;1.55;1.00;;;26.10;38.60;;;;;;5074101;28;20039;-69
2022/05/05 10:09:12;;;;;;;3.03;1.00;;;26.10;38.20;;;;;;5074198;28;20398;-69
2022/05/05 10:11:38;;;;;;;0.82;0.80;;;25.90;39.00;;;;;;5074049;28;20017;-69
2022/05/05 10:14:09;;;;;;;2.30;0.90;;;25.70;38.40;;;;;;5073154;28;20055;-69
2022/05/05 10:16:37;;;;;;;1.35;0.80;;;25.60;38.40;;;;;;5073747;28;20119;-69
2022/05/05 10:19:04;;;;;;;0.93;0.77;;;25.60;38.70;;;;;;5084264;28;20073;-69
2022/05/05 10:21:36;;;;;;;0.82;0.65;;;25.60;38.30;;;;;;5084586;28;20044;-69
2022/05/05 10:24:05;;;;;;;3.63;0.80;;;25.50;37.60;;;;;;5072840;28;20048;-69
2022/05/05 10:26:31;;;;;;;1.30;0.80;;;25.40;37.80;;;;;;5073761;28;20032;-70
2022/05/05 10:28:57;;;;;;;1.23;0.88;;;25.40;38.50;;;;;;5073616;28;20457;-70
2022/05/05 10:31:33;;;;;;;1.42;1.20;;;25.40;38.60;;;;;;5073130;28;20027;-70
2022/05/05 10:34:02;;;;;;;1.98;0.82;;;25.30;38.50;;;;;;5073696;28;20475;-70
2022/05/05 10:36:29;;;;;;;1.65;1.10;;;25.20;39.30;;;;;;5073778;28;20095;-70
2022/05/05 10:38:56;;;;;;;1.20;1.10;;;25.10;38.90;;;;;;5073804;28;20025;-70
2022/05/05 10:41:34;;;;;;;4.55;4.15;;;25.00;39.70;;;;;;5072942;28;20028;-69
2022/05/05 10:44:18;;;;;;;2.30;1.10;;;24.90;40.20;;;;;;5073483;28;20013;-69
2022/05/05 10:47:03;;;;;;;5.60;2.35;;;24.80;39.80;;;;;;5073189;28;20021;-69
2022/05/05 10:49:38;;;;;;;5.93;2.88;;;24.70;42.50;;;;;;5073285;28;20024;-70
2022/05/05 10:52:16;;;;;;;5.15;2.60;;;24.60;43.90;;;;;;5072768;28;20028;-70
2022/05/05 10:54:45;;;;;;;4.05;1.98;;;24.60;45.10;;;;;;5073145;28;20028;-69
2022/05/05 10:57:26;;;;;;;2.58;1.90;;;24.70;44.50;;;;;;5072718;28;20103;-70
2022/05/05 11:00:07;;;;;;;2.67;2.40;;;24.80;43.50;;;;;;5088853;28;20044;-69
2022/05/05 11:02:34;;;;;;;4.45;2.10;;;24.80;43.30;;;;;;5073081;28;20364;-69
2022/05/05 11:05:22;;;;;;;2.20;1.60;;;24.60;42.70;;;;;;5072779;28;20361;-69
2022/05/05 11:07:51;;;;;;;4.68;2.17;;;24.60;43.30;;;;;;5073086;28;20048;-70
2022/05/05 11:10:46;;;;;;;2.80;1.92;;;24.50;43.80;;;;;;5072439;28;20046;-69
2022/05/05 11:13:34;;;;;;;7.25;2.00;;;24.50;43.90;;;;;;5072433;28;20043;-70
2022/05/05 11:22:18;;;;;;;6.80;3.35;;;24.30;46.10;;;;;;5071879;28;20024;-69
2022/05/05 11:24:47;;;;;;;11.25;3.67;;;24.20;46.40;;;;;;5072747;28;20020;-69
2022/05/05 11:27:13;;;;;;;5.80;3.58;;;24.20;46.90;;;;;;5072287;28;20033;-70
2022/05/05 11:29:39;;;;;;;5.45;3.55;;;24.00;46.80;;;;;;5072558;28;20473;-70
2022/05/05 11:32:06;;;;;;;5.00;3.00;;;24.00;47.70;;;;;;5072762;28;20027;-70
2022/05/05 11:34:36;;;;;;;6.22;3.10;;;24.00;47.20;;;;;;5071970;28;20108;-69
2022/05/05 11:37:03;;;;;;;3.83;2.90;;;23.90;47.20;;;;;;5072036;28;20361;-70
2022/05/05 11:39:33;;;;;;;5.63;2.75;;;23.80;47.00;;;;;;5071723;28;20039;-70
2022/05/05 11:42:13;;;;;;;3.03;2.45;;;23.70;47.20;;;;;;5072840;28;20099;-70
2022/05/05 11:44:40;;;;;;;6.57;3.05;;;23.70;47.10;;;;;;5072502;28;20027;-70
2022/05/05 11:47:14;;;;;;;9.75;2.78;;;23.60;47.10;;;;;;5072175;28;20471;-70
2022/05/05 11:49:46;;;;;;;7.07;2.63;;;23.60;47.80;;;;;;5072249;28;20051;-70
2022/05/05 11:52:25;;;;;;;3.05;2.40;;;23.50;48.20;;;;;;5071811;28;20023;-70
2022/05/05 11:54:53;;;;;;;6.55;2.60;;;23.40;48.30;;;;;;5072232;28;20020;-69
2022/05/05 11:57:35;;;;;;;5.63;2.58;;;23.50;48.60;;;;;;5071559;28;20078;-69
2022/05/05 12:02:45;;;;;;;6.43;3.28;;;23.50;48.60;;;;;;5072266;28;20115;-70
2022/05/05 12:05:12;;;;;;;5.40;3.15;;;23.40;48.40;;;;;;5071246;28;20099;-70
2022/05/05 12:07:39;;;;;;;5.40;1.90;;;23.40;48.40;;;;;;5071684;28;20033;-69
2022/05/05 12:10:09;;;;;;;5.32;2.15;;;23.30;48.80;;;;;;5073689;28;20036;-69
2022/05/05 12:12:38;;;;;;;2.95;1.95;;;23.30;48.70;;;;;;5090138;28;20061;-70
2022/05/05 12:15:06;;;;;;;3.20;1.60;;;23.30;49.20;;;;;;5092158;28;20036;-70
2022/05/05 12:17:49;;;;;;;4.07;2.28;;;23.20;49.40;;;;;;5090101;28;20363;-70
2022/05/05 12:20:17;;;;;;;3.33;1.85;;;23.20;49.50;;;;;;5091463;28;20437;-69
2022/05/05 12:22:44;;;;;;;3.22;1.58;;;23.10;49.20;;;;;;5081315;28;20089;-70
2022/05/05 12:25:15;;;;;;;2.25;1.50;;;23.10;48.80;;;;;;5071869;28;20081;-70
2022/05/05 12:28:05;;;;;;;1.55;1.45;;;23.10;48.50;;;;;;5071690;28;20530;-70
2022/05/05 12:30:42;;;;;;;3.03;2.15;;;23.00;48.50;;;;;;5071266;28;20032;-69
2022/05/05 12:33:11;;;;;;;5.60;1.63;;;23.00;48.60;;;;;;5071824;28;20066;-69
2022/05/05 12:35:45;;;;;;;1.45;1.13;;;22.90;48.90;;;;;;5071769;28;20017;-70
2022/05/05 12:38:15;;;;;;;1.88;1.40;;;22.90;48.60;;;;;;5071682;28;20034;-69
2022/05/05 12:40:43;;;;;;;1.97;1.20;;;22.90;48.10;;;;;;5071984;28;20031;-69
2022/05/05 12:43:18;;;;;;;2.13;1.60;;;22.80;48.10;;;;;;5071746;28;20020;-69
2022/05/05 12:45:45;;;;;;;2.03;1.42;;;22.80;48.10;;;;;;5071775;28;20021;-68
2022/05/05 12:48:12;;;;;;;1.70;1.17;;;22.70;48.20;;;;;;5075647;28;20017;-69
2022/05/05 12:50:43;;;;;;;2.00;1.50;;;22.60;48.00;;;;;;5075894;28;20040;-70
2022/05/05 13:01:39;;;;;;;1.55;1.00;;;22.50;49.50;;;;;;5074926;28;20093;-70
2022/05/05 13:04:08;;;;;;;2.78;1.40;;;22.60;49.90;;;;;;5075601;28;20028;-69
2022/05/05 13:06:38;;;;;;;2.83;1.20;;;22.60;48.50;;;;;;5074631;28;20044;-70
2022/05/05 13:09:08;;;;;;;1.60;1.20;;;22.60;48.70;;;;;;5075458;28;20071;-70
2022/05/05 13:11:34;;;;;;;5.13;1.30;;;22.70;48.00;;;;;;5074734;28;20310;-69
2022/05/05 13:14:02;;;;;;;2.80;1.33;;;22.70;47.70;;;;;;5075001;28;20512;-70
2022/05/05 13:16:29;;;;;;;1.95;1.30;;;22.80;47.50;;;;;;5074633;28;20069;-69
2022/05/05 13:18:57;;;;;;;2.88;1.25;;;22.80;47.20;;;;;;5074957;28;20032;-70
2022/05/05 13:21:23;;;;;;;1.85;1.27;;;22.80;47.30;;;;;;5089741;28;20158;-70
2022/05/05 13:23:48;;;;;;;4.72;1.63;;;22.90;48.00;;;;;;5075157;28;20107;-70
2022/05/05 13:26:14;;;;;;;5.07;1.90;;;22.90;49.20;;;;;;5075028;28;20028;-70
2022/05/05 13:28:40;;;;;;;6.75;1.85;;;22.90;49.80;;;;;;5075147;28;20035;-69
2022/05/05 13:31:06;;;;;;;6.70;1.80;;;22.90;50.40;;;;;;5075010;28;20024;-69
2022/05/05 13:33:32;;;;;;;3.83;1.80;;;22.90;50.60;;;;;;5074192;28;20024;-70
2022/05/05 13:35:58;;;;;;;4.47;1.77;;;22.90;50.90;;;;;;5074938;28;20107;-70